sensor_id;sensor_type;location;lat;lon;timestamp;pressure;altitude;pressure_sealevel;temperature;humidity
72308;BME280;60257;42.638;23.376;2022-12-11T00:02:01;92561.75;;;9.88;82.16
72308;BME280;60257;42.638;23.376;2022-12-11T00:04:26;92553.13;;;9.93;82.20
72308;BME280;60257;42.638;23.376;2022-12-11T00:06:52;92563.72;;;9.91;82.60
72308;BME280;60257;42.638;23.376;2022-12-11T00:09:19;92558.25;;;9.91;82.48
72308;BME280;60257;42.638;23.376;2022-12-11T00:11:45;92551.59;;;9.88;82.45
72308;BME280;60257;42.638;23.376;2022-12-11T00:14:11;92517.97;;;9.81;82.34
72308;BME280;60257;42.638;23.376;2022-12-11T00:16:37;92551.22;;;9.90;82.33
72308;BME280;60257;42.638;23.376;2022-12-11T00:19:02;92564.13;;;9.68;83.07
72308;BME280;60257;42.638;23.376;2022-12-11T00:21:28;92540.28;;;9.65;83.50
72308;BME280;60257;42.638;23.376;2022-12-11T00:23:53;92512.53;;;9.56;83.56
72308;BME280;60257;42.638;23.376;2022-12-11T00:26:19;92535.19;;;9.71;83.45
72308;BME280;60257;42.638;23.376;2022-12-11T00:28:45;92543.00;;;9.69;83.52
72308;BME280;60257;42.638;23.376;2022-12-11T00:31:16;92550.44;;;9.82;83.50
72308;BME280;60257;42.638;23.376;2022-12-11T00:33:43;92532.06;;;9.79;83.76
72308;BME280;60257;42.638;23.376;2022-12-11T00:36:17;92543.78;;;9.76;83.76
72308;BME280;60257;42.638;23.376;2022-12-11T00:38:43;92507.81;;;9.78;83.79
72308;BME280;60257;42.638;23.376;2022-12-11T00:41:09;92550.44;;;9.82;83.44
72308;BME280;60257;42.638;23.376;2022-12-11T00:43:35;92489.06;;;9.73;83.80
72308;BME280;60257;42.638;23.376;2022-12-11T00:46:01;92534.41;;;9.74;83.98
72308;BME280;60257;42.638;23.376;2022-12-11T00:48:27;92526.59;;;9.72;83.61
72308;BME280;60257;42.638;23.376;2022-12-11T00:50:52;92542.63;;;9.67;84.07
72308;BME280;60257;42.638;23.376;2022-12-11T00:53:18;92519.56;;;9.68;83.45
72308;BME280;60257;42.638;23.376;2022-12-11T00:55:43;92533.63;;;9.70;83.79
72308;BME280;60257;42.638;23.376;2022-12-11T00:58:10;92537.16;;;9.59;84.28
72308;BME280;60257;42.638;23.376;2022-12-11T01:00:36;92525.81;;;9.54;84.29
72308;BME280;60257;42.638;23.376;2022-12-11T01:03:02;92535.59;;;9.58;84.37
72308;BME280;60257;42.638;23.376;2022-12-11T01:05:27;92539.09;;;9.70;84.11
72308;BME280;60257;42.638;23.376;2022-12-11T01:07:53;92540.28;;;9.72;83.90
72308;BME280;60257;42.638;23.376;2022-12-11T01:10:18;92517.25;;;9.52;84.24
72308;BME280;60257;42.638;23.376;2022-12-11T01:12:55;92543.00;;;9.72;83.97
72308;BME280;60257;42.638;23.376;2022-12-11T01:15:23;92553.94;;;9.79;83.68
72308;BME280;60257;42.638;23.376;2022-12-11T01:17:49;92518.34;;;9.76;83.65
72308;BME280;60257;42.638;23.376;2022-12-11T01:20:15;92521.50;;;9.71;84.03
72308;BME280;60257;42.638;23.376;2022-12-11T01:22:41;92551.59;;;9.78;83.51
72308;BME280;60257;42.638;23.376;2022-12-11T01:25:07;92577.03;;;9.78;83.94
72308;BME280;60257;42.638;23.376;2022-12-11T01:27:33;92575.84;;;9.69;84.46
72308;BME280;60257;42.638;23.376;2022-12-11T01:29:59;92559.06;;;9.74;84.22
72308;BME280;60257;42.638;23.376;2022-12-11T01:32:26;92558.22;;;9.84;84.33
72308;BME280;60257;42.638;23.376;2022-12-11T01:34:52;92578.19;;;9.84;85.20
72308;BME280;60257;42.638;23.376;2022-12-11T01:37:18;92546.53;;;9.83;85.09
72308;BME280;60257;42.638;23.376;2022-12-11T01:39:43;92523.41;;;9.95;85.51
72308;BME280;60257;42.638;23.376;2022-12-11T01:42:15;92521.84;;;9.97;85.73
72308;BME280;60257;42.638;23.376;2022-12-11T01:47:07;92481.59;;;9.91;86.15
72308;BME280;60257;42.638;23.376;2022-12-11T01:49:33;92546.88;;;9.99;86.55
72308;BME280;60257;42.638;23.376;2022-12-11T01:52:06;92519.09;;;10.04;86.17
72308;BME280;60257;42.638;23.376;2022-12-11T01:54:33;92489.72;;;10.09;87.07
72308;BME280;60257;42.638;23.376;2022-12-11T01:57:03;92487.44;;;9.93;87.26
72308;BME280;60257;42.638;23.376;2022-12-11T01:59:32;92523.78;;;10.00;86.63
72308;BME280;60257;42.638;23.376;2022-12-11T02:04:50;92534.78;;;9.86;86.56
72308;BME280;60257;42.638;23.376;2022-12-11T02:07:16;92536.34;;;9.87;87.47
72308;BME280;60257;42.638;23.376;2022-12-11T02:09:43;92518.34;;;9.90;86.78
72308;BME280;60257;42.638;23.376;2022-12-11T02:18:06;92529.69;;;9.88;87.23
72308;BME280;60257;42.638;23.376;2022-12-11T02:28:23;92488.44;;;10.49;84.40
72308;BME280;60257;42.638;23.376;2022-12-11T02:30:59;92470.44;;;10.48;85.20
72308;BME280;60257;42.638;23.376;2022-12-11T02:33:37;92433.63;;;10.52;84.66
72308;BME280;60257;42.638;23.376;2022-12-11T02:36:04;92436.31;;;10.56;84.49
72308;BME280;60257;42.638;23.376;2022-12-11T02:38:33;92454.69;;;10.66;84.06
72308;BME280;60257;42.638;23.376;2022-12-11T02:41:03;92471.81;;;10.80;83.07
72308;BME280;60257;42.638;23.376;2022-12-11T02:43:31;92452.09;;;11.00;81.72
72308;BME280;60257;42.638;23.376;2022-12-11T02:45:59;92459.50;;;11.06;82.17
72308;BME280;60257;42.638;23.376;2022-12-11T02:48:25;92471.63;;;11.09;82.00
72308;BME280;60257;42.638;23.376;2022-12-11T02:50:54;92475.09;;;11.16;81.72
72308;BME280;60257;42.638;23.376;2022-12-11T02:53:25;92460.97;;;11.18;81.63
72308;BME280;60257;42.638;23.376;2022-12-11T02:55:58;92455.91;;;11.13;81.05
72308;BME280;60257;42.638;23.376;2022-12-11T02:58:29;92460.22;;;11.14;81.07
72308;BME280;60257;42.638;23.376;2022-12-11T03:00:55;92473.94;;;11.14;81.23
72308;BME280;60257;42.638;23.376;2022-12-11T03:03:21;92462.16;;;11.17;81.54
72308;BME280;60257;42.638;23.376;2022-12-11T03:05:47;92473.53;;;11.15;80.27
72308;BME280;60257;42.638;23.376;2022-12-11T03:08:12;92485.22;;;11.23;81.19
72308;BME280;60257;42.638;23.376;2022-12-11T03:10:43;92481.34;;;11.17;81.80
72308;BME280;60257;42.638;23.376;2022-12-11T03:13:11;92468.41;;;11.17;82.26
72308;BME280;60257;42.638;23.376;2022-12-11T03:20:56;92464.50;;;11.15;81.31
72308;BME280;60257;42.638;23.376;2022-12-11T03:23:31;92463.28;;;11.23;80.94
72308;BME280;60257;42.638;23.376;2022-12-11T03:26:02;92438.53;;;11.30;80.68
72308;BME280;60257;42.638;23.376;2022-12-11T03:28:43;92447.13;;;11.36;80.08
72308;BME280;60257;42.638;23.376;2022-12-11T03:31:12;92472.16;;;11.41;79.77
72308;BME280;60257;42.638;23.376;2022-12-11T03:33:44;92487.38;;;11.49;79.66
72308;BME280;60257;42.638;23.376;2022-12-11T03:36:17;92482.22;;;11.55;79.52
72308;BME280;60257;42.638;23.376;2022-12-11T03:38:53;92463.78;;;11.55;79.80
72308;BME280;60257;42.638;23.376;2022-12-11T03:41:22;92479.44;;;11.58;78.63
72308;BME280;60257;42.638;23.376;2022-12-11T03:43:50;92490.31;;;11.76;77.62
72308;BME280;60257;42.638;23.376;2022-12-11T03:46:20;92494.59;;;11.77;77.92
72308;BME280;60257;42.638;23.376;2022-12-11T03:48:47;92480.44;;;11.82;76.09
72308;BME280;60257;42.638;23.376;2022-12-11T03:51:15;92463.19;;;11.82;75.20
72308;BME280;60257;42.638;23.376;2022-12-11T03:53:42;92478.41;;;11.90;74.72
72308;BME280;60257;42.638;23.376;2022-12-11T03:56:09;92489.25;;;12.01;75.05
72308;BME280;60257;42.638;23.376;2022-12-11T03:58:36;92500.47;;;12.17;73.91
72308;BME280;60257;42.638;23.376;2022-12-11T04:01:01;92491.03;;;12.18;72.10
72308;BME280;60257;42.638;23.376;2022-12-11T04:03:27;92504.75;;;12.21;73.57
72308;BME280;60257;42.638;23.376;2022-12-11T04:05:54;92504.78;;;12.18;73.43
72308;BME280;60257;42.638;23.376;2022-12-11T04:08:20;92480.03;;;12.21;71.76
72308;BME280;60257;42.638;23.376;2022-12-11T04:10:47;92494.88;;;12.27;71.84
72308;BME280;60257;42.638;23.376;2022-12-11T04:13:12;92501.38;;;12.41;71.17
72308;BME280;60257;42.638;23.376;2022-12-11T04:15:39;92512.66;;;12.50;69.59
72308;BME280;60257;42.638;23.376;2022-12-11T04:18:05;92502.25;;;12.64;68.94
72308;BME280;60257;42.638;23.376;2022-12-11T04:20:53;92520.41;;;12.58;69.85
72308;BME280;60257;42.638;23.376;2022-12-11T04:23:37;92505.31;;;12.40;68.91
72308;BME280;60257;42.638;23.376;2022-12-11T04:26:21;92520.81;;;12.57;68.68
72308;BME280;60257;42.638;23.376;2022-12-11T04:28:47;92530.13;;;12.66;68.80
72308;BME280;60257;42.638;23.376;2022-12-11T04:31:18;92546.53;;;12.77;68.18
72308;BME280;60257;42.638;23.376;2022-12-11T04:33:44;92552.47;;;12.72;68.90
72308;BME280;60257;42.638;23.376;2022-12-11T04:36:11;92546.63;;;12.66;68.54
72308;BME280;60257;42.638;23.376;2022-12-11T04:38:37;92559.50;;;12.77;68.16
72308;BME280;60257;42.638;23.376;2022-12-11T04:41:06;92565.91;;;12.97;67.02
72308;BME280;60257;42.638;23.376;2022-12-11T04:43:32;92555.31;;;12.95;68.25
72308;BME280;60257;42.638;23.376;2022-12-11T04:46:08;92526.91;;;12.75;68.83
72308;BME280;60257;42.638;23.376;2022-12-11T04:48:35;92550.00;;;12.81;68.60
72308;BME280;60257;42.638;23.376;2022-12-11T04:51:01;92565.34;;;12.79;68.91
72308;BME280;60257;42.638;23.376;2022-12-11T04:53:27;92569.56;;;12.87;66.78
72308;BME280;60257;42.638;23.376;2022-12-11T04:55:53;92572.28;;;12.90;67.57
72308;BME280;60257;42.638;23.376;2022-12-11T04:58:20;92575.03;;;12.90;68.12
72308;BME280;60257;42.638;23.376;2022-12-11T05:00:46;92577.78;;;12.90;68.31
72308;BME280;60257;42.638;23.376;2022-12-11T05:03:11;92571.53;;;12.86;67.40
72308;BME280;60257;42.638;23.376;2022-12-11T05:05:39;92584.88;;;12.88;66.53
72308;BME280;60257;42.638;23.376;2022-12-11T05:08:05;92589.09;;;12.96;65.98
72308;BME280;60257;42.638;23.376;2022-12-11T05:10:32;92557.94;;;13.06;64.77
72308;BME280;60257;42.638;23.376;2022-12-11T05:12:57;92579.94;;;13.06;65.54
72308;BME280;60257;42.638;23.376;2022-12-11T05:15:23;92565.91;;;12.97;64.90
72308;BME280;60257;42.638;23.376;2022-12-11T05:17:48;92586.41;;;12.92;63.11
72308;BME280;60257;42.638;23.376;2022-12-11T05:20:14;92594.09;;;13.04;62.12
72308;BME280;60257;42.638;23.376;2022-12-11T05:22:39;92580.38;;;13.35;58.33
72308;BME280;60257;42.638;23.376;2022-12-11T05:25:05;92600.28;;;13.46;59.19
72308;BME280;60257;42.638;23.376;2022-12-11T05:27:31;92604.78;;;13.60;58.38
72308;BME280;60257;42.638;23.376;2022-12-11T05:29:57;92598.63;;;13.52;59.43
72308;BME280;60257;42.638;23.376;2022-12-11T05:32:23;92602.97;;;13.49;59.85
72308;BME280;60257;42.638;23.376;2022-12-11T05:34:49;92599.84;;;13.47;59.61
72308;BME280;60257;42.638;23.376;2022-12-11T05:37:14;92587.22;;;13.50;57.06
72308;BME280;60257;42.638;23.376;2022-12-11T05:39:40;92580.94;;;13.49;58.27
72308;BME280;60257;42.638;23.376;2022-12-11T05:42:09;92567.94;;;13.50;59.01
72308;BME280;60257;42.638;23.376;2022-12-11T05:44:34;92559.81;;;13.43;59.39
72308;BME280;60257;42.638;23.376;2022-12-11T05:47:00;92555.78;;;13.47;59.76
72308;BME280;60257;42.638;23.376;2022-12-11T05:49:25;92550.66;;;13.49;59.26
72308;BME280;60257;42.638;23.376;2022-12-11T05:51:50;92553.69;;;13.55;57.83
72308;BME280;60257;42.638;23.376;2022-12-11T05:54:16;92554.03;;;13.61;56.99
72308;BME280;60257;42.638;23.376;2022-12-11T05:56:45;92550.88;;;13.62;57.95
72308;BME280;60257;42.638;23.376;2022-12-11T05:59:10;92542.63;;;13.85;57.57
72308;BME280;60257;42.638;23.376;2022-12-11T06:01:38;92546.56;;;13.84;57.78
72308;BME280;60257;42.638;23.376;2022-12-11T06:04:06;92546.13;;;13.86;57.97
72308;BME280;60257;42.638;23.376;2022-12-11T06:06:32;92519.00;;;13.61;58.53
72308;BME280;60257;42.638;23.376;2022-12-11T06:08:58;92552.63;;;13.76;57.76
72308;BME280;60257;42.638;23.376;2022-12-11T06:11:26;92561.53;;;13.83;58.14
72308;BME280;60257;42.638;23.376;2022-12-11T06:13:52;92543.88;;;13.81;57.97
72308;BME280;60257;42.638;23.376;2022-12-11T06:16:18;92547.94;;;13.73;58.27
72308;BME280;60257;42.638;23.376;2022-12-11T06:18:44;92540.53;;;13.70;57.93
72308;BME280;60257;42.638;23.376;2022-12-11T06:21:12;92544.41;;;13.72;57.58
72308;BME280;60257;42.638;23.376;2022-12-11T06:23:38;92557.75;;;13.74;56.97
72308;BME280;60257;42.638;23.376;2022-12-11T06:26:04;92564.19;;;13.91;56.80
72308;BME280;60257;42.638;23.376;2022-12-11T06:28:29;92590.84;;;13.97;55.81
72308;BME280;60257;42.638;23.376;2022-12-11T06:30:58;92593.59;;;13.97;56.89
72308;BME280;60257;42.638;23.376;2022-12-11T06:33:23;92591.66;;;13.94;57.02
72308;BME280;60257;42.638;23.376;2022-12-11T06:35:49;92605.88;;;13.93;56.76
72308;BME280;60257;42.638;23.376;2022-12-11T06:38:15;92582.19;;;13.95;56.78
72308;BME280;60257;42.638;23.376;2022-12-11T06:40:41;92581.38;;;13.98;55.91
72308;BME280;60257;42.638;23.376;2022-12-11T06:43:07;92581.78;;;13.97;57.98
72308;BME280;60257;42.638;23.376;2022-12-11T06:45:33;92585.72;;;13.96;58.00
72308;BME280;60257;42.638;23.376;2022-12-11T06:47:58;92581.00;;;13.96;58.21
72308;BME280;60257;42.638;23.376;2022-12-11T06:50:24;92584.50;;;14.00;56.00
72308;BME280;60257;42.638;23.376;2022-12-11T06:52:50;92595.53;;;14.23;56.00
72308;BME280;60257;42.638;23.376;2022-12-11T06:55:15;92587.66;;;14.22;56.17
72308;BME280;60257;42.638;23.376;2022-12-11T06:57:41;92600.31;;;14.19;57.64
72308;BME280;60257;42.638;23.376;2022-12-11T07:00:07;92623.91;;;14.20;57.68
72308;BME280;60257;42.638;23.376;2022-12-11T07:02:32;92614.38;;;14.25;56.21
72308;BME280;60257;42.638;23.376;2022-12-11T07:04:58;92619.47;;;14.26;56.21
72308;BME280;60257;42.638;23.376;2022-12-11T07:07:24;92630.84;;;14.32;57.02
72308;BME280;60257;42.638;23.376;2022-12-11T07:09:49;92608.13;;;14.24;56.99
72308;BME280;60257;42.638;23.376;2022-12-11T07:12:16;92604.09;;;14.29;57.37
72308;BME280;60257;42.638;23.376;2022-12-11T07:14:41;92602.59;;;14.24;57.32
72308;BME280;60257;42.638;23.376;2022-12-11T07:17:07;92606.91;;;14.49;57.72
72308;BME280;60257;42.638;23.376;2022-12-11T07:19:32;92603.50;;;14.41;58.20
72308;BME280;60257;42.638;23.376;2022-12-11T07:21:58;92600.19;;;14.26;58.50
72308;BME280;60257;42.638;23.376;2022-12-11T07:24:23;92631.06;;;14.41;57.16
72308;BME280;60257;42.638;23.376;2022-12-11T07:26:49;92629.84;;;14.46;56.56
72308;BME280;60257;42.638;23.376;2022-12-11T07:29:14;92624.44;;;14.39;57.42
72308;BME280;60257;42.638;23.376;2022-12-11T07:31:40;92627.28;;;14.32;57.65
72308;BME280;60257;42.638;23.376;2022-12-11T07:34:06;92621.78;;;14.32;57.79
72308;BME280;60257;42.638;23.376;2022-12-11T07:36:32;92645.66;;;14.42;57.83
72308;BME280;60257;42.638;23.376;2022-12-11T07:38:59;92639.81;;;14.36;57.86
72308;BME280;60257;42.638;23.376;2022-12-11T07:41:25;92641.38;;;14.37;57.48
72308;BME280;60257;42.638;23.376;2022-12-11T07:43:52;92671.69;;;14.37;57.75
72308;BME280;60257;42.638;23.376;2022-12-11T07:46:23;92669.69;;;14.41;57.67
72308;BME280;60257;42.638;23.376;2022-12-11T07:48:49;92666.38;;;14.50;55.97
72308;BME280;60257;42.638;23.376;2022-12-11T07:51:23;92671.00;;;14.56;56.31
72308;BME280;60257;42.638;23.376;2022-12-11T07:53:52;92667.91;;;14.54;55.83
72308;BME280;60257;42.638;23.376;2022-12-11T07:56:18;92666.75;;;14.52;55.63
72308;BME280;60257;42.638;23.376;2022-12-11T07:58:45;92668.38;;;14.49;56.19
72308;BME280;60257;42.638;23.376;2022-12-11T08:01:23;92669.28;;;14.43;57.41
72308;BME280;60257;42.638;23.376;2022-12-11T08:03:50;92684.13;;;14.49;57.41
72308;BME280;60257;42.638;23.376;2022-12-11T08:06:16;92683.66;;;14.54;56.68
72308;BME280;60257;42.638;23.376;2022-12-11T08:08:42;92691.69;;;14.45;56.64
72308;BME280;60257;42.638;23.376;2022-12-11T08:11:11;92695.13;;;14.52;56.44
72308;BME280;60257;42.638;23.376;2022-12-11T08:13:37;92698.94;;;14.58;56.96
72308;BME280;60257;42.638;23.376;2022-12-11T08:16:08;92689.97;;;14.54;57.66
72308;BME280;60257;42.638;23.376;2022-12-11T08:18:35;92682.41;;;14.58;57.61
72308;BME280;60257;42.638;23.376;2022-12-11T08:21:17;92679.94;;;14.64;57.68
72308;BME280;60257;42.638;23.376;2022-12-11T08:23:44;92680.13;;;14.53;59.21
72308;BME280;60257;42.638;23.376;2022-12-11T08:26:14;92685.56;;;14.57;58.53
72308;BME280;60257;42.638;23.376;2022-12-11T08:28:40;92684.75;;;14.60;58.22
72308;BME280;60257;42.638;23.376;2022-12-11T08:31:07;92680.91;;;14.54;59.49
72308;BME280;60257;42.638;23.376;2022-12-11T08:33:35;92686.59;;;14.67;58.64
72308;BME280;60257;42.638;23.376;2022-12-11T08:36:06;92678.31;;;14.67;59.21
72308;BME280;60257;42.638;23.376;2022-12-11T08:38:32;92688.22;;;14.64;58.15
72308;BME280;60257;42.638;23.376;2022-12-11T08:40:58;92675.06;;;14.72;57.83
72308;BME280;60257;42.638;23.376;2022-12-11T08:43:24;92683.00;;;14.70;57.26
72308;BME280;60257;42.638;23.376;2022-12-11T08:45:50;92674.50;;;14.60;58.16
72308;BME280;60257;42.638;23.376;2022-12-11T08:48:15;92669.88;;;14.54;57.73
72308;BME280;60257;42.638;23.376;2022-12-11T08:50:41;92659.13;;;14.59;57.85
72308;BME280;60257;42.638;23.376;2022-12-11T08:53:06;92672.25;;;14.75;57.58
72308;BME280;60257;42.638;23.376;2022-12-11T08:55:32;92672.53;;;14.81;57.84
72308;BME280;60257;42.638;23.376;2022-12-11T08:57:58;92668.66;;;14.78;57.85
72308;BME280;60257;42.638;23.376;2022-12-11T09:00:24;92677.72;;;14.79;58.12
72308;BME280;60257;42.638;23.376;2022-12-11T09:02:50;92664.59;;;14.86;57.92
72308;BME280;60257;42.638;23.376;2022-12-11T09:05:15;92651.47;;;14.71;58.03
72308;BME280;60257;42.638;23.376;2022-12-11T09:07:41;92667.75;;;14.85;57.84
72308;BME280;60257;42.638;23.376;2022-12-11T09:10:07;92671.88;;;14.96;57.93
72308;BME280;60257;42.638;23.376;2022-12-11T09:12:34;92665.66;;;14.92;57.29
72308;BME280;60257;42.638;23.376;2022-12-11T09:15:00;92652.06;;;15.01;57.38
72308;BME280;60257;42.638;23.376;2022-12-11T09:17:25;92649.88;;;15.13;57.09
72308;BME280;60257;42.638;23.376;2022-12-11T09:19:51;92647.84;;;15.17;57.63
72308;BME280;60257;42.638;23.376;2022-12-11T09:22:16;92639.56;;;15.17;57.72
72308;BME280;60257;42.638;23.376;2022-12-11T09:24:42;92619.66;;;14.86;57.11
72308;BME280;60257;42.638;23.376;2022-12-11T09:27:07;92653.50;;;15.10;57.03
72308;BME280;60257;42.638;23.376;2022-12-11T09:29:33;92645.00;;;15.20;57.12
72308;BME280;60257;42.638;23.376;2022-12-11T09:31:58;92651.84;;;15.12;56.76
72308;BME280;60257;42.638;23.376;2022-12-11T09:34:24;92642.16;;;15.24;56.77
72308;BME280;60257;42.638;23.376;2022-12-11T09:36:49;92634.31;;;15.22;56.99
72308;BME280;60257;42.638;23.376;2022-12-11T09:39:16;92630.09;;;15.34;57.04
72308;BME280;60257;42.638;23.376;2022-12-11T09:44:33;92599.56;;;14.85;56.56
72308;BME280;60257;42.638;23.376;2022-12-11T09:47:00;92637.97;;;14.96;56.92
72308;BME280;60257;42.638;23.376;2022-12-11T09:49:40;92641.31;;;15.07;56.42
72308;BME280;60257;42.638;23.376;2022-12-11T09:52:14;92646.06;;;15.07;56.58
72308;BME280;60257;42.638;23.376;2022-12-11T09:54:50;92644.22;;;15.00;58.00
72308;BME280;60257;42.638;23.376;2022-12-11T09:57:30;92646.06;;;15.07;57.71
72308;BME280;60257;42.638;23.376;2022-12-11T10:07:43;92641.03;;;15.21;57.76
72308;BME280;60257;42.638;23.376;2022-12-11T10:12:56;92645.91;;;14.94;59.08
72308;BME280;60257;42.638;23.376;2022-12-11T10:15:52;92632.59;;;14.89;59.43
72308;BME280;60257;42.638;23.376;2022-12-11T10:18:22;92627.16;;;14.85;59.47
72308;BME280;60257;42.638;23.376;2022-12-11T10:20:51;92628.25;;;14.88;59.75
72308;BME280;60257;42.638;23.376;2022-12-11T10:23:41;92636.00;;;14.96;60.21
72308;BME280;60257;42.638;23.376;2022-12-11T10:26:19;92635.56;;;14.98;60.77
72308;BME280;60257;42.638;23.376;2022-12-11T10:28:46;92638.47;;;14.91;61.21
72308;BME280;60257;42.638;23.376;2022-12-11T10:34:03;92631.56;;;14.59;63.86
72308;BME280;60257;42.638;23.376;2022-12-11T10:36:35;92630.38;;;14.80;63.61
72308;BME280;60257;42.638;23.376;2022-12-11T10:39:03;92633.88;;;14.84;62.86
72308;BME280;60257;42.638;23.376;2022-12-11T10:41:41;92613.91;;;14.96;62.67
72308;BME280;60257;42.638;23.376;2022-12-11T10:44:33;92618.22;;;14.97;60.12
72308;BME280;60257;42.638;23.376;2022-12-11T10:47:13;92608.19;;;15.07;59.83
72308;BME280;60257;42.638;23.376;2022-12-11T10:50:00;92604.22;;;15.08;59.62
72308;BME280;60257;42.638;23.376;2022-12-11T10:52:27;92593.19;;;15.08;58.08
72308;BME280;60257;42.638;23.376;2022-12-11T10:55:00;92607.19;;;15.17;57.81
72308;BME280;60257;42.638;23.376;2022-12-11T10:57:37;92595.91;;;15.28;57.37
72308;BME280;60257;42.638;23.376;2022-12-11T11:00:07;92591.59;;;15.27;57.93
72308;BME280;60257;42.638;23.376;2022-12-11T11:02:50;92593.09;;;15.31;55.37
72308;BME280;60257;42.638;23.376;2022-12-11T11:05:33;92595.75;;;15.35;56.45
72308;BME280;60257;42.638;23.376;2022-12-11T11:08:10;92589.25;;;15.45;57.98
72308;BME280;60257;42.638;23.376;2022-12-11T11:10:36;92588.72;;;15.50;58.22
72308;BME280;60257;42.638;23.376;2022-12-11T11:13:02;92585.00;;;15.40;56.84
72308;BME280;60257;42.638;23.376;2022-12-11T11:15:29;92584.56;;;15.42;56.79
72308;BME280;60257;42.638;23.376;2022-12-11T11:18:10;92585.00;;;15.40;57.34
72308;BME280;60257;42.638;23.376;2022-12-11T11:20:43;92583.34;;;15.43;57.63
72308;BME280;60257;42.638;23.376;2022-12-11T11:23:13;92574.69;;;15.25;58.42
72308;BME280;60257;42.638;23.376;2022-12-11T11:25:52;92593.31;;;15.21;59.48
72308;BME280;60257;42.638;23.376;2022-12-11T11:28:22;92595.44;;;15.13;60.66
72308;BME280;60257;42.638;23.376;2022-12-11T11:31:02;92587.78;;;15.21;61.16
72308;BME280;60257;42.638;23.376;2022-12-11T11:33:30;92585.53;;;15.16;61.45
72308;BME280;60257;42.638;23.376;2022-12-11T11:36:01;92582.84;;;15.12;61.41
72308;BME280;60257;42.638;23.376;2022-12-11T11:38:31;92583.09;;;15.18;62.01
72308;BME280;60257;42.638;23.376;2022-12-11T11:43:58;92592.31;;;15.11;61.69
72308;BME280;60257;42.638;23.376;2022-12-11T11:54:51;92581.22;;;14.75;64.66
72308;BME280;60257;42.638;23.376;2022-12-11T11:57:44;92573.56;;;14.63;63.10
72308;BME280;60257;42.638;23.376;2022-12-11T12:00:20;92565.63;;;14.65;65.42
72308;BME280;60257;42.638;23.376;2022-12-11T12:02:48;92569.88;;;14.50;66.69
72308;BME280;60257;42.638;23.376;2022-12-11T12:05:18;92560.63;;;14.37;68.73
72308;BME280;60257;42.638;23.376;2022-12-11T12:07:59;92560.09;;;14.22;64.16
72308;BME280;60257;42.638;23.376;2022-12-11T12:11:44;92560.28;;;14.11;67.48
72308;BME280;60257;42.638;23.376;2022-12-11T12:13:53;92558.84;;;14.03;66.43
72308;BME280;60257;42.638;23.376;2022-12-11T12:16:45;92558.91;;;14.00;67.28
72308;BME280;60257;42.638;23.376;2022-12-11T12:19:34;92558.50;;;14.01;67.19
72308;BME280;60257;42.638;23.376;2022-12-11T12:25:26;92555.78;;;13.74;67.61
72308;BME280;60257;42.638;23.376;2022-12-11T12:28:10;92548.88;;;13.63;69.30
72308;BME280;60257;42.638;23.376;2022-12-11T12:39:10;92561.97;;;13.55;69.83
72308;BME280;60257;42.638;23.376;2022-12-11T12:41:57;92583.19;;;13.31;69.92
72308;BME280;60257;42.638;23.376;2022-12-11T12:44:31;92576.22;;;12.89;70.87
72308;BME280;60257;42.638;23.376;2022-12-11T12:47:11;92596.00;;;12.40;69.94
72308;BME280;60257;42.638;23.376;2022-12-11T12:49:43;92595.19;;;12.02;70.49
72308;BME280;60257;42.638;23.376;2022-12-11T12:55:00;92617.53;;;10.75;73.52
72308;BME280;60257;42.638;23.376;2022-12-11T13:02:58;92660.31;;;10.16;73.67
72308;BME280;60257;42.638;23.376;2022-12-11T13:05:27;92671.22;;;9.42;77.01
72308;BME280;60257;42.638;23.376;2022-12-11T13:07:59;92655.13;;;9.12;77.44
72308;BME280;60257;42.638;23.376;2022-12-11T13:10:34;92677.38;;;9.10;78.40
72308;BME280;60257;42.638;23.376;2022-12-11T13:13:01;92683.47;;;8.75;77.86
72308;BME280;60257;42.638;23.376;2022-12-11T13:15:34;92683.97;;;8.30;79.68
72308;BME280;60257;42.638;23.376;2022-12-11T13:18:03;92692.13;;;8.23;80.35
72308;BME280;60257;42.638;23.376;2022-12-11T13:20:31;92700.00;;;7.80;81.48
72308;BME280;60257;42.638;23.376;2022-12-11T13:23:25;92714.63;;;7.58;81.96
72308;BME280;60257;42.638;23.376;2022-12-11T13:25:59;92700.81;;;7.44;81.76
72308;BME280;60257;42.638;23.376;2022-12-11T13:28:46;92708.25;;;7.43;82.24
72308;BME280;60257;42.638;23.376;2022-12-11T13:33:52;92737.69;;;6.97;81.79
72308;BME280;60257;42.638;23.376;2022-12-11T13:38:50;92771.59;;;6.70;82.16
72308;BME280;60257;42.638;23.376;2022-12-11T13:41:18;92752.34;;;6.55;82.83
72308;BME280;60257;42.638;23.376;2022-12-11T13:43:46;92773.84;;;6.38;83.16
72308;BME280;60257;42.638;23.376;2022-12-11T13:46:18;92777.69;;;6.33;83.59
72308;BME280;60257;42.638;23.376;2022-12-11T13:48:47;92792.28;;;6.22;84.01
72308;BME280;60257;42.638;23.376;2022-12-11T13:51:18;92800.50;;;6.25;83.20
72308;BME280;60257;42.638;23.376;2022-12-11T13:53:44;92800.06;;;6.23;83.13
72308;BME280;60257;42.638;23.376;2022-12-11T13:56:17;92809.53;;;6.06;83.18
72308;BME280;60257;42.638;23.376;2022-12-11T13:58:44;92814.94;;;5.84;83.41
72308;BME280;60257;42.638;23.376;2022-12-11T14:01:10;92820.03;;;6.08;82.92
72308;BME280;60257;42.638;23.376;2022-12-11T14:03:46;92823.78;;;6.00;83.35
72308;BME280;60257;42.638;23.376;2022-12-11T14:06:13;92834.00;;;6.06;81.98
72308;BME280;60257;42.638;23.376;2022-12-11T14:08:41;92861.84;;;5.58;81.74
72308;BME280;60257;42.638;23.376;2022-12-11T14:11:20;92838.59;;;5.60;82.37
72308;BME280;60257;42.638;23.376;2022-12-11T14:13:46;92854.06;;;5.56;82.27
72308;BME280;60257;42.638;23.376;2022-12-11T14:16:30;92854.50;;;5.39;83.63
72308;BME280;60257;42.638;23.376;2022-12-11T14:19:02;92847.63;;;5.45;82.95
72308;BME280;60257;42.638;23.376;2022-12-11T14:21:29;92842.63;;;5.28;83.24